createdAt,value
2023-02-08T00:00:43.203Z,10.4
2023-02-08T00:03:45.323Z,11.5
2023-02-08T00:06:47.132Z,10.8
2023-02-08T00:09:49.094Z,10.4
2023-02-08T00:12:51.028Z,11
2023-02-08T00:15:53.012Z,9.7
2023-02-08T00:18:54.956Z,10.7
2023-02-08T00:21:56.935Z,11.4
2023-02-08T00:24:58.895Z,11.5
2023-02-08T00:28:02.737Z,11.9
2023-02-08T00:31:02.867Z,11.4
2023-02-08T00:34:04.786Z,11.4
2023-02-08T00:37:06.736Z,11.2
2023-02-08T00:40:08.704Z,11
2023-02-08T00:43:10.669Z,11
2023-02-08T00:46:12.690Z,10.4
2023-02-08T00:49:14.597Z,9.7
2023-02-08T00:52:16.561Z,10.2
2023-02-08T00:55:18.510Z,10
2023-02-08T00:58:20.495Z,9.6
2023-02-08T01:01:22.435Z,9.9
2023-02-08T01:04:24.397Z,10.6
2023-02-08T01:07:26.389Z,9.2
2023-02-08T01:10:28.308Z,10.1
2023-02-08T01:13:30.284Z,10.2
2023-02-08T01:16:32.310Z,9.9
2023-02-08T01:19:34.214Z,9.4
2023-02-08T01:22:36.174Z,9
2023-02-08T01:25:38.160Z,9.7
2023-02-08T01:28:40.104Z,9.7
2023-02-08T01:31:42.135Z,9.4
2023-02-08T01:34:44.234Z,9.9
2023-02-08T01:37:46.003Z,10.2
2023-02-08T01:40:47.956Z,10.1
2023-02-08T01:43:49.957Z,9.6
2023-02-08T01:46:51.888Z,9.3
2023-02-08T01:49:53.863Z,8.9
2023-02-08T01:52:55.801Z,9.9
2023-02-08T01:55:57.774Z,11.5
2023-02-08T01:58:59.724Z,9.3
2023-02-08T02:02:01.712Z,9.5
2023-02-08T02:05:03.657Z,9.1
2023-02-08T02:08:05.634Z,10.4
2023-02-08T02:11:07.570Z,8.5
2023-02-08T02:14:09.554Z,9.2
2023-02-08T02:17:11.487Z,8.9
2023-02-08T02:20:13.481Z,10.2
2023-02-08T02:23:15.415Z,10.6
2023-02-08T02:26:17.366Z,10.6
2023-02-08T02:29:19.367Z,10.6
2023-02-08T02:32:21.384Z,9.8
2023-02-08T02:35:23.284Z,10.7
2023-02-08T02:38:25.240Z,9.9
2023-02-08T02:41:27.202Z,10.5
2023-02-08T02:44:29.169Z,10.6
2023-02-08T02:47:31.126Z,10
2023-02-08T02:50:33.083Z,11
2023-02-08T02:53:35.026Z,10.3
2023-02-08T02:56:37.022Z,10.1
2023-02-08T02:59:38.964Z,9
2023-02-08T03:02:40.923Z,10
2023-02-08T03:05:42.866Z,11.2
2023-02-08T03:08:44.845Z,10
2023-02-08T03:11:46.794Z,10.1
2023-02-08T03:14:48.769Z,9.3
2023-02-08T03:17:50.762Z,9.8
2023-02-08T03:20:52.698Z,9.2
2023-02-08T03:23:54.688Z,9.7
2023-02-08T03:26:56.689Z,10.2
2023-02-08T03:29:58.635Z,9.5
2023-02-08T03:33:00.616Z,9.8
2023-02-08T03:36:02.569Z,9
2023-02-08T03:39:04.528Z,10.3
2023-02-08T03:42:06.483Z,10.9
2023-02-08T03:45:08.442Z,9.4
2023-02-08T03:48:10.409Z,10.8
2023-02-08T03:51:12.380Z,10.7
2023-02-08T03:54:14.332Z,9.7
2023-02-08T03:57:16.301Z,10.5
2023-02-08T04:00:18.256Z,10.8
2023-02-08T04:03:20.196Z,10.5
2023-02-08T04:06:22.175Z,10.6
2023-02-08T04:09:24.118Z,10.4
2023-02-08T04:12:26.091Z,9.9
2023-02-08T04:15:28.179Z,10.2
2023-02-08T04:18:29.986Z,9.2
2023-02-08T04:21:31.955Z,9.9
2023-02-08T04:24:33.926Z,10
2023-02-08T04:27:35.882Z,9.4
2023-02-08T04:30:37.891Z,9.5
2023-02-08T04:33:39.809Z,9.4
2023-02-08T04:36:41.795Z,9.8
2023-02-08T04:39:43.752Z,9.7
2023-02-08T04:42:45.705Z,7.9
2023-02-08T04:45:47.644Z,10.1
2023-02-08T04:48:49.620Z,9.9
2023-02-08T04:51:51.584Z,9.7
2023-02-08T04:54:53.552Z,9.1
2023-02-08T04:57:55.542Z,10.4
2023-02-08T05:00:57.497Z,9.2
2023-02-08T05:03:59.446Z,10.7
2023-02-08T05:07:01.400Z,9.4
2023-02-08T05:10:03.391Z,10.7
2023-02-08T05:13:05.297Z,10.5
2023-02-08T05:16:07.355Z,9.6
2023-02-08T05:19:09.226Z,9.6
2023-02-08T05:22:11.177Z,9.8
2023-02-08T05:25:13.155Z,10.4
2023-02-08T05:28:15.146Z,10.3
2023-02-08T05:31:17.296Z,10.3
2023-02-08T05:34:19.042Z,9.3
2023-02-08T05:37:21.012Z,10.3
2023-02-08T05:40:22.983Z,9.1
2023-02-08T05:43:24.942Z,9.7
2023-02-08T05:46:26.921Z,9.5
2023-02-08T05:49:28.880Z,9
2023-02-08T05:52:30.861Z,9.9
2023-02-08T05:55:32.834Z,8.7
2023-02-08T05:58:34.781Z,10.3
2023-02-08T06:01:36.743Z,9.9
2023-02-08T06:04:39.076Z,9.7
2023-02-08T06:07:40.689Z,9.8
2023-02-08T06:10:42.767Z,9.2
2023-02-08T06:13:44.580Z,9.2
2023-02-08T06:16:46.639Z,8.5
2023-02-08T06:19:48.588Z,9.3
2023-02-08T06:22:50.493Z,9.6
2023-02-08T06:25:52.445Z,8.7
2023-02-08T06:28:54.411Z,8.6
2023-02-08T06:31:56.449Z,10.8
2023-02-08T06:34:58.328Z,8.5
2023-02-08T06:38:00.278Z,9.5
2023-02-08T06:41:02.229Z,9.6
2023-02-08T06:44:04.189Z,9.1
2023-02-08T06:47:06.136Z,8.7
2023-02-08T06:50:08.100Z,9.6
2023-02-08T06:53:10.097Z,9.3
2023-02-08T06:56:12.015Z,9.3
2023-02-08T06:59:13.983Z,9.5
2023-02-08T07:02:16.045Z,9.3
2023-02-08T07:05:17.914Z,9.9
2023-02-08T07:08:19.897Z,9.4
2023-02-08T07:11:21.845Z,9.9
2023-02-08T07:14:23.802Z,9.3
2023-02-08T07:17:25.775Z,9.6
2023-02-08T07:20:27.732Z,8.8
2023-02-08T07:23:29.679Z,9.2
2023-02-08T07:26:31.632Z,8.7
2023-02-08T07:29:33.605Z,9.3
2023-02-08T07:32:35.577Z,8.2
2023-02-08T07:35:37.540Z,9.1
2023-02-08T07:38:39.493Z,8.8
2023-02-08T07:41:41.467Z,8.2
2023-02-08T07:44:43.428Z,9
2023-02-08T07:47:45.402Z,8.1
2023-02-08T07:50:47.358Z,8.7
2023-02-08T07:53:49.305Z,8.6
2023-02-08T07:56:51.278Z,8.2
2023-02-08T07:59:54.192Z,8.3
2023-02-08T08:02:55.209Z,8.4
2023-02-08T08:05:57.177Z,8.7
2023-02-08T08:08:59.126Z,7.6
2023-02-08T08:12:01.103Z,7.8
2023-02-08T08:15:03.073Z,8
2023-02-08T08:18:05.019Z,7.9
2023-02-08T08:21:06.981Z,7.8
2023-02-08T08:24:08.973Z,7.4
2023-02-08T08:27:10.973Z,7.9
2023-02-08T08:30:12.856Z,7.2
2023-02-08T08:33:14.808Z,7.7
2023-02-08T08:36:16.803Z,8.2
2023-02-08T08:39:18.736Z,7.8
2023-02-08T08:42:20.686Z,7.2
2023-02-08T08:45:22.649Z,8.4
2023-02-08T08:48:24.591Z,8.8
2023-02-08T08:51:26.564Z,8.4
2023-02-08T08:54:28.533Z,9.3
2023-02-08T08:57:30.500Z,9.2
2023-02-08T09:00:32.476Z,8.6
2023-02-08T09:03:34.506Z,8.9
2023-02-08T09:06:36.417Z,9.5
2023-02-08T09:09:38.341Z,8.8
2023-02-08T09:12:40.352Z,9.4
2023-02-08T09:15:42.302Z,9.1
2023-02-08T09:18:44.233Z,8.7
2023-02-08T09:21:46.213Z,10
2023-02-08T09:24:48.140Z,9.3
2023-02-08T09:27:50.109Z,9.4
2023-02-08T09:30:52.132Z,9.5
2023-02-08T09:33:54.058Z,8.7
2023-02-08T09:36:56.056Z,8.7
2023-02-08T09:39:58.025Z,9.4
2023-02-08T09:42:59.973Z,9.2
2023-02-08T09:46:01.944Z,8.1
2023-02-08T09:49:03.905Z,8.9
2023-02-08T09:52:05.880Z,9
2023-02-08T09:55:07.836Z,7.7
2023-02-08T09:58:09.885Z,8
2023-02-08T10:01:11.902Z,7.8
2023-02-08T10:04:13.787Z,7.9
2023-02-08T10:07:15.757Z,7.9
2023-02-08T10:10:17.722Z,8.5
2023-02-08T10:13:20.499Z,8.8
2023-02-08T10:16:21.692Z,8
2023-02-08T10:19:23.621Z,9
2023-02-08T10:22:25.610Z,8.1
2023-02-08T10:25:27.534Z,8.7
2023-02-08T10:28:29.525Z,8.3
2023-02-08T10:31:31.548Z,8.6
2023-02-08T10:34:33.460Z,8.1
2023-02-08T10:37:35.417Z,8.1
2023-02-08T10:40:37.373Z,9.4
2023-02-08T10:43:39.340Z,9.2
2023-02-08T10:46:41.308Z,9.4
2023-02-08T10:49:43.277Z,9
2023-02-08T10:52:45.298Z,8.4
2023-02-08T10:55:47.262Z,8.3
2023-02-08T10:58:49.226Z,9.2
2023-02-08T11:01:51.178Z,8.4
2023-02-08T11:04:53.166Z,8.7
2023-02-08T11:07:55.150Z,9.4
2023-02-08T11:10:57.173Z,9.1
2023-02-08T11:13:59.067Z,8.5
2023-02-08T11:17:01.048Z,8.8
2023-02-08T11:20:03.004Z,8.3
2023-02-08T11:23:04.976Z,8.4
2023-02-08T11:26:06.924Z,7.8
2023-02-08T11:29:08.872Z,8.7
2023-02-08T11:32:10.877Z,8.7
2023-02-08T11:35:12.818Z,7.8
2023-02-08T11:38:14.836Z,8.6
2023-02-08T11:41:16.771Z,8.5
2023-02-08T11:44:18.708Z,8.1
2023-02-08T11:47:21.588Z,8.7
2023-02-08T11:50:22.800Z,8.7
2023-02-08T11:53:24.609Z,8.3
2023-02-08T11:56:26.554Z,8.8
2023-02-08T11:59:28.493Z,8.2
2023-02-08T12:02:30.576Z,8.5
2023-02-08T12:05:32.429Z,8.5
2023-02-08T12:08:34.410Z,7.9
2023-02-08T12:11:36.355Z,8.1
2023-02-08T12:14:38.334Z,7.1
2023-02-08T12:17:40.331Z,7.5
2023-02-08T12:20:42.294Z,8.2
2023-02-08T12:23:44.238Z,8.2
2023-02-08T12:26:46.192Z,8.1
2023-02-08T12:29:48.509Z,7.6
2023-02-08T12:32:50.131Z,7.4
2023-02-08T12:36:03.440Z,7.8
2023-02-08T12:38:54.068Z,7.3
2023-02-08T12:41:56.017Z,6.8
2023-02-08T12:44:57.994Z,6.7
2023-02-08T12:48:04.262Z,6.8
2023-02-08T12:51:01.952Z,6.9
2023-02-08T12:54:03.919Z,5.9
2023-02-08T12:57:05.861Z,6.5
2023-02-08T13:00:07.830Z,7
2023-02-08T13:03:09.800Z,6.5
2023-02-08T13:06:11.760Z,7
2023-02-08T13:09:13.713Z,5.6
2023-02-08T13:12:15.694Z,5.9
2023-02-08T13:15:28.772Z,5.3
2023-02-08T13:18:19.645Z,5.2
2023-02-08T13:21:21.602Z,4.8
2023-02-08T13:24:23.553Z,4.5
2023-02-08T13:27:25.494Z,5.1
2023-02-08T13:30:27.472Z,4.5
2023-02-08T13:33:29.443Z,4.5
2023-02-08T13:36:31.426Z,4
2023-02-08T13:39:33.384Z,3.7
2023-02-08T13:42:35.339Z,5.3
2023-02-08T13:45:37.307Z,5.4
2023-02-08T13:48:39.275Z,4.9
2023-02-08T13:51:41.242Z,5.1
2023-02-08T13:54:43.212Z,5.7
2023-02-08T13:57:45.159Z,5.1
2023-02-08T14:00:47.246Z,4.6
2023-02-08T14:03:49.099Z,3.6
2023-02-08T14:06:51.083Z,4
2023-02-08T14:09:53.024Z,4
2023-02-08T14:12:54.986Z,4
2023-02-08T14:15:56.978Z,4.7
2023-02-08T14:18:58.905Z,4.4
2023-02-08T14:22:00.857Z,3.9
2023-02-08T14:25:02.818Z,4.1
2023-02-08T14:28:04.800Z,4
2023-02-08T14:31:06.857Z,4
2023-02-08T14:34:08.739Z,4
2023-02-08T14:37:10.690Z,3.7
2023-02-08T14:40:12.631Z,4.1
2023-02-08T14:43:14.601Z,4.1
2023-02-08T14:46:16.538Z,3.6
2023-02-08T14:49:18.515Z,3.5
2023-02-08T14:52:20.483Z,3.9
2023-02-08T14:55:22.443Z,3.7
2023-02-08T14:58:24.407Z,3.9
2023-02-08T15:01:26.373Z,3.9
2023-02-08T15:04:28.373Z,4.3
2023-02-08T15:07:32.402Z,3.4
2023-02-08T15:10:32.294Z,4
2023-02-08T15:13:34.254Z,3.1
2023-02-08T15:16:36.261Z,3.8
2023-02-08T15:19:38.211Z,3.2
2023-02-08T15:22:40.288Z,3.6
2023-02-08T15:25:42.108Z,4
2023-02-08T15:28:44.069Z,3.5
2023-02-08T15:31:46.085Z,3.4
2023-02-08T15:34:47.973Z,4
2023-02-08T15:37:49.949Z,3.5
2023-02-08T15:40:51.962Z,4.2
2023-02-08T15:43:53.870Z,3.8
2023-02-08T15:46:55.896Z,3.6
2023-02-08T15:49:57.820Z,3.7
2023-02-08T15:52:59.767Z,3.4
2023-02-08T15:56:01.772Z,3.7
2023-02-08T15:59:03.744Z,3.5
2023-02-08T16:02:05.660Z,4.6
2023-02-08T16:05:07.634Z,4
2023-02-08T16:08:09.639Z,3.8
2023-02-08T16:11:11.534Z,3.4
2023-02-08T16:14:13.503Z,4.3
2023-02-08T16:17:15.468Z,3.7
2023-02-08T16:20:17.443Z,4.2
2023-02-08T16:23:19.583Z,4.3
2023-02-08T16:26:21.364Z,4.5
2023-02-08T16:29:23.322Z,4.1
2023-02-08T16:32:25.292Z,3.7
2023-02-08T16:35:27.227Z,4
2023-02-08T16:38:29.183Z,3.7
2023-02-08T16:41:31.145Z,4.2
2023-02-08T16:44:33.119Z,4.3
2023-02-08T16:47:35.126Z,3.9
2023-02-08T16:50:37.080Z,4
2023-02-08T16:53:42.158Z,3.9
2023-02-08T16:56:41.000Z,4.2
2023-02-08T16:59:42.954Z,5.1
2023-02-08T17:02:44.923Z,5.3
2023-02-08T17:05:46.886Z,4.4
2023-02-08T17:08:48.859Z,5.4
2023-02-08T17:11:50.812Z,4.8
2023-02-08T17:14:52.795Z,5
2023-02-08T17:17:54.734Z,5.7
2023-02-08T17:20:56.720Z,5.2
2023-02-08T17:23:58.683Z,5.8
2023-02-08T17:27:00.728Z,5.6
2023-02-08T17:30:02.692Z,6.1
2023-02-08T17:33:04.646Z,7.2
2023-02-08T17:36:06.633Z,6.8
2023-02-08T17:39:08.586Z,7.1
2023-02-08T17:42:10.541Z,6.8
2023-02-08T17:45:12.520Z,6.8
2023-02-08T17:48:14.482Z,6.1
2023-02-08T17:51:16.573Z,5.9
2023-02-08T17:54:18.384Z,6.3
2023-02-08T17:57:20.359Z,6.5
2023-02-08T18:00:22.314Z,6.6
2023-02-08T18:03:24.274Z,6.6
2023-02-08T18:06:26.245Z,7
2023-02-08T18:09:28.199Z,6.5
2023-02-08T18:12:33.295Z,6.8
2023-02-08T18:15:35.206Z,6.5
2023-02-08T18:18:37.178Z,6.2
2023-02-08T18:21:39.118Z,6.5
2023-02-08T18:24:41.108Z,6.7
2023-02-08T18:27:43.059Z,6.1
2023-02-08T18:30:45.078Z,6
2023-02-08T18:33:46.977Z,6.4
2023-02-08T18:36:48.946Z,6.4
2023-02-08T18:39:50.901Z,5.5
2023-02-08T18:42:52.862Z,6.2
2023-02-08T18:45:54.846Z,7.2
2023-02-08T18:48:56.812Z,7.4
2023-02-08T18:51:58.755Z,7.2
2023-02-08T18:55:00.879Z,7.7
2023-02-08T18:58:03.699Z,7.7
2023-02-08T19:01:04.732Z,7.1
2023-02-08T19:04:06.798Z,6.4
2023-02-08T19:07:08.740Z,6.7
2023-02-08T19:10:10.783Z,7.5
2023-02-08T19:13:12.733Z,6.7
2023-02-08T19:16:14.739Z,6.6
2023-02-08T19:19:16.656Z,7.5
2023-02-08T19:22:18.587Z,7
2023-02-08T19:25:20.560Z,6.9
2023-02-08T19:28:22.531Z,6.7
2023-02-08T19:31:24.598Z,6.8
2023-02-08T19:34:26.443Z,8.5
2023-02-08T19:37:28.434Z,7.2
2023-02-08T19:40:30.386Z,6.7
2023-02-08T19:43:32.369Z,7.8
2023-02-08T19:46:34.349Z,7.7
2023-02-08T19:49:36.306Z,7.9
2023-02-08T19:52:38.256Z,7.5
2023-02-08T19:55:40.316Z,7.1
2023-02-08T19:58:42.216Z,6.9
2023-02-08T20:01:44.191Z,7.7
2023-02-08T20:04:46.203Z,8.4
2023-02-08T20:07:48.120Z,7.5
2023-02-08T20:10:50.275Z,7.5
2023-02-08T20:13:52.057Z,6.7
2023-02-08T20:16:54.090Z,8.3
2023-02-08T20:19:56.000Z,8.8
2023-02-08T20:22:57.949Z,9.1
2023-02-08T20:25:59.911Z,8.2
2023-02-08T20:29:01.860Z,7.8
2023-02-08T20:32:03.864Z,7.7
2023-02-08T20:35:05.785Z,8.6
2023-02-08T20:38:07.749Z,8.5
2023-02-08T20:41:09.702Z,8.8
2023-02-08T20:44:11.716Z,8.5
2023-02-08T20:47:13.668Z,9.6
2023-02-08T20:50:18.953Z,8
2023-02-08T20:53:17.636Z,9
2023-02-08T20:56:19.605Z,8.6
2023-02-08T20:59:21.560Z,8.8
2023-02-08T21:02:23.555Z,8.3
2023-02-08T21:05:25.479Z,8
2023-02-08T21:08:27.429Z,8.9
2023-02-08T21:11:29.420Z,9.4
2023-02-08T21:14:31.361Z,8.3
2023-02-08T21:17:33.400Z,8.1
2023-02-08T21:20:35.307Z,8.7
2023-02-08T21:23:37.290Z,8.3
2023-02-08T21:26:39.211Z,8.1
2023-02-08T21:29:41.178Z,8.7
2023-02-08T21:32:43.241Z,7.9
2023-02-08T21:35:45.155Z,7.9
2023-02-08T21:38:47.109Z,7.5
2023-02-08T21:41:49.118Z,9
2023-02-08T21:44:51.062Z,9
2023-02-08T21:47:53.009Z,7.9
2023-02-08T21:50:55.055Z,8.1
2023-02-08T21:53:56.923Z,8.6
2023-02-08T21:56:58.905Z,9.1
2023-02-08T22:00:00.861Z,9
2023-02-08T22:03:02.837Z,8.7
2023-02-08T22:06:04.783Z,8.5
2023-02-08T22:09:06.738Z,8.5
2023-02-08T22:12:08.712Z,8
2023-02-08T22:15:10.694Z,10.7
2023-02-08T22:18:12.631Z,8.3
2023-02-08T22:21:14.604Z,8.5
2023-02-08T22:24:16.568Z,10.4
2023-02-08T22:27:18.547Z,10.3
2023-02-08T22:30:20.512Z,9.2
2023-02-08T22:33:22.487Z,10.8
2023-02-08T22:36:24.435Z,10.6
2023-02-08T22:39:26.405Z,10
2023-02-08T22:42:28.384Z,10
2023-02-08T22:45:30.349Z,10.5
2023-02-08T22:48:32.351Z,10.7
2023-02-08T22:51:34.303Z,11.4
2023-02-08T22:54:36.244Z,10.4
2023-02-08T22:57:38.196Z,10.2
2023-02-08T23:00:40.168Z,11.6
2023-02-08T23:03:42.120Z,10.5
2023-02-08T23:06:44.096Z,11
2023-02-08T23:09:46.032Z,10.7
2023-02-08T23:12:48.006Z,11.3
2023-02-08T23:15:49.977Z,12
2023-02-08T23:18:51.937Z,10.5
2023-02-08T23:21:53.870Z,11.2
2023-02-08T23:24:55.852Z,10.8
2023-02-08T23:27:57.809Z,10.8
2023-02-08T23:30:59.813Z,11.2
2023-02-08T23:34:01.694Z,10.3
2023-02-08T23:37:03.662Z,11.6
2023-02-08T23:40:05.640Z,11.2
2023-02-08T23:43:07.602Z,10.7
2023-02-08T23:46:09.554Z,11.5
2023-02-08T23:49:11.521Z,10.9
2023-02-08T23:52:13.515Z,10.9
2023-02-08T23:55:15.434Z,10.5
2023-02-08T23:58:17.402Z,10.2
